createdAt,value
2018-10-21T00:00:08.503Z,37
2018-10-21T00:02:05.891Z,37.1
2018-10-21T00:04:05.800Z,37
2018-10-21T00:06:05.497Z,37
2018-10-21T00:08:07.830Z,37
2018-10-21T00:10:05.927Z,37
2018-10-21T00:12:06.399Z,37.1
2018-10-21T00:14:05.617Z,37
2018-10-21T00:16:05.790Z,37
2018-10-21T00:18:05.467Z,37.1
2018-10-21T00:20:05.639Z,37.2
2018-10-21T00:22:06.047Z,37.1
2018-10-21T00:24:12.742Z,37
2018-10-21T00:26:07.956Z,36.9
2018-10-21T00:28:05.641Z,36.9
2018-10-21T00:30:05.347Z,37.1
2018-10-21T00:32:05.271Z,36.9
2018-10-21T00:34:08.453Z,36.8
2018-10-21T00:36:05.146Z,36.8
2018-10-21T00:38:05.853Z,36.7
2018-10-21T00:40:05.114Z,36.8
2018-10-21T00:42:05.921Z,37
2018-10-21T00:44:05.664Z,36.9
2018-10-21T00:46:05.403Z,37.1
2018-10-21T00:48:05.092Z,36.8
2018-10-21T00:50:05.752Z,37
2018-10-21T00:52:05.535Z,37.1
2018-10-21T00:54:05.306Z,37
2018-10-21T00:56:06.069Z,36.8
2018-10-21T00:58:05.803Z,36.8
2018-10-21T01:00:05.492Z,37
2018-10-21T01:02:05.225Z,36.8
2018-10-21T01:04:06.028Z,36.9
2018-10-21T01:06:10.735Z,36.8
2018-10-21T01:08:05.522Z,36.9
2018-10-21T01:10:05.256Z,36.8
2018-10-21T01:12:06.042Z,36.8
2018-10-21T01:14:08.316Z,36.8
2018-10-21T01:16:05.072Z,36.6
2018-10-21T01:18:08.550Z,36.7
2018-10-21T01:20:08.322Z,36.7
2018-10-21T01:22:07.536Z,36.8
2018-10-21T01:24:05.212Z,36.8
2018-10-21T01:26:05.988Z,37
2018-10-21T01:28:05.662Z,36.7
2018-10-21T01:30:05.342Z,36.8
2018-10-21T01:32:05.148Z,36.7
2018-10-21T01:34:05.840Z,36.6
2018-10-21T01:36:05.717Z,36.9
2018-10-21T01:38:05.734Z,36.8
2018-10-21T01:40:05.719Z,36.8
2018-10-21T01:42:08.003Z,36.8
2018-10-21T01:44:05.681Z,36.8
2018-10-21T01:46:05.353Z,36.7
2018-10-21T01:48:05.134Z,36.7
2018-10-21T01:50:05.841Z,36.8
2018-10-21T01:52:05.575Z,36.6
2018-10-21T01:54:07.890Z,36.7
2018-10-21T01:56:08.134Z,36.8
2018-10-21T01:58:10.877Z,36.8
2018-10-21T02:00:05.522Z,36.8
2018-10-21T02:02:07.754Z,36.6
2018-10-21T02:04:05.639Z,36.6
2018-10-21T02:06:05.405Z,36.6
2018-10-21T02:08:05.146Z,36.7
2018-10-21T02:10:05.825Z,36.6
2018-10-21T02:12:05.527Z,36.6
2018-10-21T02:14:05.415Z,36.6
2018-10-21T02:16:07.796Z,36.5
2018-10-21T02:18:05.227Z,36.5
2018-10-21T02:20:05.971Z,36.5
2018-10-21T02:22:05.696Z,36.6
2018-10-21T02:24:08.488Z,36.5
2018-10-21T02:26:07.756Z,36.5
2018-10-21T02:28:05.254Z,36.5
2018-10-21T02:30:05.031Z,36.5
2018-10-21T02:32:05.737Z,36.6
2018-10-21T02:34:05.587Z,36.5
2018-10-21T02:36:07.804Z,36.7
2018-10-21T02:38:05.490Z,36.4
2018-10-21T02:40:05.184Z,36.6
2018-10-21T02:42:05.891Z,36.6
2018-10-21T02:44:05.542Z,36.6
2018-10-21T02:46:05.295Z,36.5
2018-10-21T02:48:08.518Z,36.5
2018-10-21T02:50:05.205Z,36.5
2018-10-21T02:52:06.008Z,36.4
2018-10-21T02:54:05.879Z,36.5
2018-10-21T02:56:08.132Z,36.4
2018-10-21T02:58:05.861Z,36.4
2018-10-21T03:00:05.568Z,36.5
2018-10-21T03:02:05.301Z,36.3
2018-10-21T03:04:05.096Z,36.4
2018-10-21T03:06:10.879Z,36.5
2018-10-21T03:08:05.652Z,36.5
2018-10-21T03:10:05.888Z,36.4
2018-10-21T03:12:05.568Z,36.4
2018-10-21T03:14:05.804Z,36.4
2018-10-21T03:16:05.512Z,36.5
2018-10-21T03:18:05.958Z,36.5
2018-10-21T03:20:05.765Z,36.3
2018-10-21T03:22:05.686Z,36.5
2018-10-21T03:24:07.979Z,36.3
2018-10-21T03:26:05.775Z,36.3
2018-10-21T03:28:05.997Z,36.3
2018-10-21T03:30:05.685Z,36.5
2018-10-21T03:32:05.408Z,36.5
2018-10-21T03:34:05.731Z,36.5
2018-10-21T03:36:05.975Z,36.5
2018-10-21T03:38:05.665Z,36.4
2018-10-21T03:40:05.524Z,36.4
2018-10-21T03:42:16.115Z,36.4
2018-10-21T03:44:15.979Z,36.2
2018-10-21T03:46:05.931Z,36.2
2018-10-21T03:48:05.334Z,36.3
2018-10-21T03:50:05.011Z,36.3
2018-10-21T03:52:05.833Z,36.3
2018-10-21T03:54:05.772Z,36.2
2018-10-21T03:56:10.494Z,36.3
2018-10-21T03:58:07.821Z,36.3
2018-10-21T04:00:05.903Z,36.2
2018-10-21T04:02:08.113Z,36.2
2018-10-21T04:04:05.885Z,36.2
2018-10-21T04:06:05.285Z,36.2
2018-10-21T04:08:05.496Z,36.2
2018-10-21T04:10:05.399Z,36.2
2018-10-21T04:12:05.407Z,36.3
2018-10-21T04:14:05.143Z,36.3
2018-10-21T04:16:06.011Z,36.1
2018-10-21T04:18:05.179Z,36.1
2018-10-21T04:20:05.890Z,36.2
2018-10-21T04:22:10.854Z,36
2018-10-21T04:24:05.543Z,36.2
2018-10-21T04:26:07.753Z,36.3
2018-10-21T04:28:06.196Z,36
2018-10-21T04:30:08.526Z,36.3
2018-10-21T04:32:08.414Z,36.2
2018-10-21T04:34:05.344Z,36.2
2018-10-21T04:36:05.320Z,36.2
2018-10-21T04:38:05.978Z,36.2
2018-10-21T04:40:05.819Z,36.3
2018-10-21T04:42:05.686Z,36.2
2018-10-21T04:44:05.403Z,36.1
2018-10-21T04:46:05.239Z,36.1
2018-10-21T04:48:10.299Z,36.2
2018-10-21T04:50:06.034Z,36.2
2018-10-21T04:52:08.510Z,36
2018-10-21T04:54:05.374Z,36
2018-10-21T04:56:05.013Z,36.2
2018-10-21T04:58:05.865Z,36
2018-10-21T05:00:05.761Z,36.2
2018-10-21T05:02:07.989Z,36.2
2018-10-21T05:04:05.763Z,36.2
2018-10-21T05:06:05.683Z,36.1
2018-10-21T05:08:10.442Z,36.1
2018-10-21T05:10:05.223Z,36.1
2018-10-21T05:12:05.037Z,36.1
2018-10-21T05:14:05.731Z,36
2018-10-21T05:16:06.226Z,36
2018-10-21T05:18:05.391Z,36.1
2018-10-21T05:20:07.694Z,36.2
2018-10-21T05:22:08.185Z,36
2018-10-21T05:24:06.165Z,36
2018-10-21T05:26:07.785Z,35.9
2018-10-21T05:28:05.696Z,35.9
2018-10-21T05:30:05.567Z,35.9
2018-10-21T05:32:05.845Z,35.9
2018-10-21T05:34:05.716Z,35.9
2018-10-21T05:36:05.788Z,35.9
2018-10-21T05:38:05.554Z,36
2018-10-21T05:40:05.351Z,36
2018-10-21T05:42:07.754Z,36.1
2018-10-21T05:44:08.019Z,35.9
2018-10-21T05:46:05.799Z,35.9
2018-10-21T05:48:05.759Z,36
2018-10-21T05:50:05.503Z,35.9
2018-10-21T05:52:08.581Z,35.9
2018-10-21T05:54:05.538Z,35.9
2018-10-21T05:56:07.803Z,35.9
2018-10-21T05:58:05.765Z,35.9
2018-10-21T06:00:11.066Z,35.9
2018-10-21T06:02:07.903Z,35.9
2018-10-21T06:04:05.690Z,36
2018-10-21T06:06:05.602Z,35.9
2018-10-21T06:08:05.327Z,36.2
2018-10-21T06:10:05.210Z,35.9
2018-10-21T06:12:05.136Z,36
2018-10-21T06:14:05.880Z,35.9
2018-10-21T06:16:05.239Z,35.9
2018-10-21T06:18:05.835Z,36
2018-10-21T06:20:05.107Z,35.8
2018-10-21T06:22:05.971Z,36
2018-10-21T06:24:05.905Z,35.9
2018-10-21T06:26:05.640Z,36
2018-10-21T06:28:05.273Z,35.8
2018-10-21T06:30:05.464Z,35.8
2018-10-21T06:32:10.189Z,35.8
2018-10-21T06:34:05.884Z,35.8
2018-10-21T06:36:08.107Z,35.9
2018-10-21T06:38:05.324Z,35.9
2018-10-21T06:40:05.078Z,36.1
2018-10-21T06:42:05.819Z,36
2018-10-21T06:44:10.571Z,36.1
2018-10-21T06:46:15.422Z,36.1
2018-10-21T06:48:07.628Z,35.9
2018-10-21T06:50:07.823Z,36
2018-10-21T06:52:05.567Z,36.2
2018-10-21T06:54:05.393Z,36
2018-10-21T06:56:05.106Z,36.1
2018-10-21T06:58:05.814Z,35.9
2018-10-21T07:00:05.467Z,36
2018-10-21T07:02:05.092Z,35.9
2018-10-21T07:04:05.959Z,36.1
2018-10-21T07:06:08.450Z,35.9
2018-10-21T07:08:05.168Z,35.9
2018-10-21T07:10:06.004Z,35.9
2018-10-21T07:12:05.915Z,36
2018-10-21T07:14:05.695Z,36.2
2018-10-21T07:16:05.555Z,36.1
2018-10-21T07:18:05.795Z,35.8
2018-10-21T07:20:13.072Z,36.1
2018-10-21T07:22:05.921Z,36.1
2018-10-21T07:24:05.815Z,36.1
2018-10-21T07:26:05.521Z,36.1
2018-10-21T07:28:05.408Z,36.1
2018-10-21T07:30:06.036Z,36.3
2018-10-21T07:32:15.846Z,36
2018-10-21T07:34:05.805Z,36.3
2018-10-21T07:36:05.635Z,36.1
2018-10-21T07:38:07.851Z,36.2
2018-10-21T07:42:36.184Z,36.1
2018-10-21T07:42:52.451Z,36.2
2018-10-21T07:44:05.196Z,36.3
2018-10-21T07:46:08.627Z,36.1
2018-10-21T07:48:07.816Z,36.3
2018-10-21T07:50:05.616Z,36.3
2018-10-21T07:52:06.085Z,36.3
2018-10-21T07:54:05.106Z,36.2
2018-10-21T07:56:08.327Z,36
2018-10-21T07:58:10.897Z,36.2
2018-10-21T08:00:05.892Z,36.2
2018-10-21T08:02:07.640Z,36.3
2018-10-21T08:04:08.131Z,36.3
2018-10-21T08:06:05.125Z,36.3
2018-10-21T08:08:05.844Z,36.3
2018-10-21T08:10:05.808Z,36
2018-10-21T08:12:10.785Z,36.1
2018-10-21T08:14:05.501Z,36.1
2018-10-21T08:16:07.832Z,36.1
2018-10-21T08:18:16.070Z,36.1
2018-10-21T08:20:05.742Z,36.2
2018-10-21T08:22:08.174Z,36.1
2018-10-21T08:24:05.077Z,36.1
2018-10-21T08:26:08.289Z,36.1
2018-10-21T08:28:06.107Z,36.1
2018-10-21T08:30:07.731Z,36.3
2018-10-21T08:32:10.505Z,36
2018-10-21T08:34:05.393Z,36.1
2018-10-21T08:36:06.069Z,36.3
2018-10-21T08:38:07.656Z,36.3
2018-10-21T08:40:05.761Z,36
2018-10-21T08:42:05.196Z,36.1
2018-10-21T08:44:05.923Z,36.3
2018-10-21T08:46:05.827Z,36.2
2018-10-21T08:48:05.895Z,36.4
2018-10-21T08:50:05.908Z,36.2
2018-10-21T08:52:10.500Z,36.1
2018-10-21T08:54:05.655Z,36.1
2018-10-21T08:56:07.880Z,36.3
2018-10-21T08:58:08.301Z,36.2
2018-10-21T09:00:05.773Z,36.2
2018-10-21T09:02:05.768Z,36.3
2018-10-21T09:04:06.129Z,36.4
2018-10-21T09:06:08.097Z,36.3
2018-10-21T09:08:05.286Z,36.3
2018-10-21T09:10:06.208Z,36.4
2018-10-21T09:12:05.174Z,36.6
2018-10-21T09:14:05.908Z,37.2
2018-10-21T09:16:05.716Z,37.5
2018-10-21T09:18:05.956Z,37.8
2018-10-21T09:20:05.733Z,37.6
2018-10-21T09:22:05.883Z,37.3
2018-10-21T09:24:15.426Z,37.2
2018-10-21T09:26:05.170Z,37
2018-10-21T09:28:06.077Z,37.2
2018-10-21T09:30:07.668Z,37.2
2018-10-21T09:32:15.513Z,37.2
2018-10-21T09:34:05.541Z,37.2
2018-10-21T09:36:05.594Z,37.1
2018-10-21T09:38:05.301Z,37.3
2018-10-21T09:40:11.272Z,38
2018-10-21T09:42:08.057Z,37.7
2018-10-21T09:44:05.860Z,37.7
2018-10-21T09:46:05.666Z,37.5
2018-10-21T09:48:05.577Z,37.5
2018-10-21T09:50:05.521Z,37.3
2018-10-21T09:52:05.930Z,37.3
2018-10-21T09:54:05.591Z,37.5
2018-10-21T09:56:05.283Z,37.4
2018-10-21T09:58:06.169Z,37.1
2018-10-21T10:00:07.732Z,37.3
2018-10-21T10:02:05.501Z,37.3
2018-10-21T10:04:05.301Z,37.5
2018-10-21T10:06:07.582Z,37.1
2018-10-21T10:08:07.809Z,37.2
2018-10-21T10:10:08.253Z,37.2
2018-10-21T10:12:05.179Z,37.2
2018-10-21T10:14:05.884Z,37.2
2018-10-21T10:16:07.795Z,37.1
2018-10-21T10:18:08.353Z,37
2018-10-21T10:20:05.095Z,37
2018-10-21T10:22:05.489Z,37.2
2018-10-21T10:24:05.513Z,37.2
2018-10-21T10:26:05.768Z,37.1
2018-10-21T10:28:07.747Z,37.1
2018-10-21T10:30:05.667Z,36.9
2018-10-21T10:32:05.929Z,37
2018-10-21T10:34:05.342Z,37
2018-10-21T10:36:05.225Z,37.1
2018-10-21T10:38:06.009Z,36.8
2018-10-21T10:40:05.952Z,36.9
2018-10-21T10:42:06.468Z,36.9
2018-10-21T10:44:08.341Z,36.9
2018-10-21T10:46:05.249Z,37
2018-10-21T10:48:05.741Z,37
2018-10-21T10:50:10.542Z,36.8
2018-10-21T10:52:05.387Z,36.8
2018-10-21T10:54:05.824Z,36.8
2018-10-21T10:56:05.515Z,36.8
2018-10-21T10:58:05.258Z,36.8
2018-10-21T11:00:08.424Z,36.9
2018-10-21T11:02:05.424Z,36.7
2018-10-21T11:04:05.933Z,36.9
2018-10-21T11:06:05.499Z,36.8
2018-10-21T11:08:08.449Z,36.6
2018-10-21T11:10:05.214Z,36.6
2018-10-21T11:12:05.285Z,36.7
2018-10-21T11:14:07.806Z,36.6
2018-10-21T11:16:05.684Z,36.6
2018-10-21T11:18:08.452Z,36.6
2018-10-21T11:20:12.846Z,36.7
2018-10-21T11:22:05.279Z,36.7
2018-10-21T11:24:05.086Z,36.6
2018-10-21T11:26:05.413Z,36.7
2018-10-21T11:28:05.406Z,36.6
2018-10-21T11:30:05.539Z,36.7
2018-10-21T11:32:07.748Z,36.7
2018-10-21T11:34:05.593Z,36.7
2018-10-21T11:36:05.635Z,36.7
2018-10-21T11:38:05.363Z,36.5
2018-10-21T11:40:05.199Z,36.5
2018-10-21T11:42:10.219Z,36.7
2018-10-21T11:44:05.935Z,36.7
2018-10-21T11:46:05.817Z,36.6
2018-10-21T11:48:05.997Z,36.6
2018-10-21T11:50:05.814Z,36.6
2018-10-21T11:52:05.796Z,36.6
2018-10-21T11:54:05.505Z,36.6
2018-10-21T11:56:05.243Z,36.5
2018-10-21T11:58:06.069Z,36.7
2018-10-21T12:00:05.093Z,36.6
2018-10-21T12:02:05.814Z,36.6
2018-10-21T12:04:05.559Z,36.6
2018-10-21T12:06:08.005Z,36.6
2018-10-21T12:08:05.667Z,36.4
2018-10-21T12:10:07.949Z,36.6
2018-10-21T12:12:05.565Z,36.6
2018-10-21T12:14:05.335Z,36.6
2018-10-21T12:16:05.604Z,36.6
2018-10-21T12:18:05.330Z,36.5
2018-10-21T12:20:05.084Z,36.5
2018-10-21T12:22:06.033Z,36.6
2018-10-21T12:24:07.719Z,36.4
2018-10-21T12:26:07.992Z,36.5
2018-10-21T12:28:05.426Z,36.5
2018-10-21T12:30:05.830Z,36.6
2018-10-21T12:32:05.521Z,36.5
2018-10-21T12:34:07.979Z,36.6
2018-10-21T12:36:05.884Z,36.5
2018-10-21T12:38:05.720Z,36.4
2018-10-21T12:40:05.555Z,36.6
2018-10-21T12:42:08.272Z,36.6
2018-10-21T12:44:08.524Z,36.6
2018-10-21T12:46:05.340Z,36.6
2018-10-21T12:48:07.894Z,36.4
2018-10-21T12:50:05.597Z,36.4
2018-10-21T12:52:05.442Z,36.4
2018-10-21T12:54:18.065Z,36.5
2018-10-21T12:56:06.623Z,36.5
2018-10-21T12:58:10.825Z,36.4
2018-10-21T13:00:08.505Z,36.6
2018-10-21T13:02:05.376Z,36.6
2018-10-21T13:04:10.958Z,36.5
2018-10-21T13:06:08.422Z,36.5
2018-10-21T13:08:05.703Z,36.5
2018-10-21T13:10:08.661Z,36.4
2018-10-21T13:12:05.516Z,36.7
2018-10-21T13:14:05.694Z,36.7
2018-10-21T13:16:07.972Z,36.6
2018-10-21T13:18:05.269Z,36.6
2018-10-21T13:20:08.737Z,36.6
2018-10-21T13:22:08.176Z,36.5
2018-10-21T13:24:05.294Z,36.6
2018-10-21T13:26:05.682Z,36.5
2018-10-21T13:28:08.254Z,36.6
2018-10-21T13:30:05.291Z,36.6
2018-10-21T13:32:05.099Z,36.6
2018-10-21T13:34:06.140Z,36.6
2018-10-21T13:36:05.606Z,36.7
2018-10-21T13:38:05.406Z,36.7
2018-10-21T13:40:05.531Z,36.7
2018-10-21T13:42:05.744Z,36.6
2018-10-21T13:44:05.558Z,36.6
2018-10-21T13:46:08.079Z,36.5
2018-10-21T13:48:08.404Z,36.8
2018-10-21T13:50:07.592Z,36.7
2018-10-21T13:52:08.349Z,36.7
2018-10-21T13:54:05.066Z,36.7
2018-10-21T13:56:05.466Z,36.7
2018-10-21T13:58:05.334Z,36.9
2018-10-21T14:00:05.776Z,36.9
2018-10-21T14:02:08.079Z,36.9
2018-10-21T14:04:05.968Z,36.9
2018-10-21T14:06:05.957Z,36.8
2018-10-21T14:08:05.752Z,36.8
2018-10-21T14:10:08.081Z,36.8
2018-10-21T14:12:05.149Z,36.8
2018-10-21T14:14:08.421Z,36.8
2018-10-21T14:16:10.354Z,36.8
2018-10-21T14:18:05.232Z,36.8
2018-10-21T14:20:06.013Z,36.7
2018-10-21T14:22:05.842Z,36.8
2018-10-21T14:24:08.661Z,37.1
2018-10-21T14:26:13.360Z,36.8
2018-10-21T14:28:05.063Z,36.9
2018-10-21T14:30:05.965Z,36.9
2018-10-21T14:32:05.137Z,37.1
2018-10-21T14:34:05.885Z,36.9
2018-10-21T14:36:08.241Z,37.1
2018-10-21T14:38:05.334Z,37.1
2018-10-21T14:40:07.960Z,37
2018-10-21T14:42:08.287Z,37
2018-10-21T14:44:05.289Z,37
2018-10-21T14:46:08.693Z,36.9
2018-10-21T14:48:05.882Z,36.9
2018-10-21T14:50:05.039Z,37
2018-10-21T14:52:05.759Z,37
2018-10-21T14:54:05.605Z,37
2018-10-21T14:56:05.698Z,37
2018-10-21T14:58:05.603Z,37
2018-10-21T15:00:05.435Z,37
2018-10-21T15:02:05.617Z,37
2018-10-21T15:04:08.251Z,37
2018-10-21T15:06:07.869Z,37
2018-10-21T15:08:05.842Z,37
2018-10-21T15:10:05.991Z,37.1
2018-10-21T15:12:05.579Z,37.1
2018-10-21T15:14:10.695Z,36.9
2018-10-21T15:16:05.838Z,36.9
2018-10-21T15:18:06.048Z,36.9
2018-10-21T15:20:06.119Z,37
2018-10-21T15:22:06.221Z,37
2018-10-21T15:24:05.259Z,37
2018-10-21T15:26:06.056Z,37
2018-10-21T15:28:05.279Z,36.8
2018-10-21T15:30:05.340Z,36.8
2018-10-21T15:32:05.413Z,37
2018-10-21T15:34:08.099Z,36.9
2018-10-21T15:36:08.230Z,37
2018-10-21T15:38:08.138Z,37
2018-10-21T15:40:05.206Z,37
2018-10-21T15:42:07.745Z,36.8
2018-10-21T15:44:10.819Z,36.8
2018-10-21T15:46:05.980Z,37
2018-10-21T15:48:05.432Z,37
2018-10-21T15:50:07.834Z,36.8
2018-10-21T15:52:05.875Z,36.8
2018-10-21T15:54:05.696Z,36.9
2018-10-21T15:56:05.660Z,36.7
2018-10-21T15:58:10.255Z,36.9
2018-10-21T16:00:07.785Z,36.9
2018-10-21T16:02:10.779Z,36.9
2018-10-21T16:04:06.056Z,36.6
2018-10-21T16:06:10.099Z,36.8
2018-10-21T16:08:05.943Z,36.8
2018-10-21T16:10:05.965Z,36.8
2018-10-21T16:12:05.616Z,36.7
2018-10-21T16:14:06.096Z,36.6
2018-10-21T16:16:08.533Z,36.7
2018-10-21T16:18:05.320Z,36.7
2018-10-21T16:20:06.197Z,36.7
2018-10-21T16:22:05.720Z,36.8
2018-10-21T16:24:05.579Z,36.7
2018-10-21T16:26:05.508Z,36.6
2018-10-21T16:28:05.899Z,36.6
2018-10-21T16:30:10.308Z,36.8
2018-10-21T16:32:06.423Z,36.8
2018-10-21T16:34:05.190Z,36.7
2018-10-21T16:36:05.078Z,36.7
2018-10-21T16:38:05.319Z,36.6
2018-10-21T16:40:12.740Z,36.6
2018-10-21T16:42:05.425Z,36.6
2018-10-21T16:44:05.129Z,36.6
2018-10-21T16:46:05.867Z,36.6
2018-10-21T16:48:05.733Z,36.7
2018-10-21T16:50:07.923Z,36.6
2018-10-21T16:52:08.137Z,36.6
2018-10-21T16:54:08.691Z,36.7
2018-10-21T16:56:05.670Z,36.7
2018-10-21T16:58:10.678Z,36.8
2018-10-21T17:00:05.682Z,36.8
2018-10-21T17:02:05.789Z,36.7
2018-10-21T17:04:05.497Z,36.8
2018-10-21T17:06:05.203Z,36.7
2018-10-21T17:08:05.906Z,36.6
2018-10-21T17:10:06.797Z,36.6
2018-10-21T17:12:08.400Z,36.8
2018-10-21T17:14:10.677Z,36.7
2018-10-21T17:16:06.015Z,36.7
2018-10-21T17:18:05.145Z,36.8
2018-10-21T17:20:05.368Z,36.8
2018-10-21T17:22:05.193Z,36.8
2018-10-21T17:24:07.737Z,36.5
2018-10-21T17:26:05.629Z,36.5
2018-10-21T17:28:05.521Z,36.6
2018-10-21T17:30:05.487Z,36.6
2018-10-21T17:32:05.262Z,36.6
2018-10-21T17:34:06.148Z,36.6
2018-10-21T17:36:05.153Z,36.6
2018-10-21T17:38:05.941Z,36.7
2018-10-21T17:40:05.973Z,36.6
2018-10-21T17:42:05.088Z,36.5
2018-10-21T17:44:05.782Z,36.4
2018-10-21T17:46:06.211Z,36.5
2018-10-21T17:48:05.905Z,36.5
2018-10-21T17:50:05.882Z,36.6
2018-10-21T17:52:05.863Z,36.5
2018-10-21T17:54:05.894Z,36.6
2018-10-21T17:56:05.623Z,36.6
2018-10-21T17:58:06.067Z,36.6
2018-10-21T18:00:07.766Z,36.3
2018-10-21T18:02:05.995Z,36.5
2018-10-21T18:04:11.057Z,36.2
2018-10-21T18:06:07.602Z,36
2018-10-21T18:08:05.363Z,36
2018-10-21T18:10:07.728Z,36.1
2018-10-21T18:12:05.660Z,35.9
2018-10-21T18:14:05.721Z,36
2018-10-21T18:16:05.896Z,36
2018-10-21T18:18:05.020Z,36
2018-10-21T18:20:05.854Z,36
2018-10-21T18:22:05.798Z,36.1
2018-10-21T18:24:05.791Z,36.3
2018-10-21T18:26:10.862Z,36.2
2018-10-21T18:28:05.203Z,36.3
2018-10-21T18:30:05.077Z,36.5
2018-10-21T18:32:05.803Z,37.7
2018-10-21T18:34:08.166Z,40
2018-10-21T18:36:07.640Z,38.8
2018-10-21T18:38:05.350Z,38.8
2018-10-21T18:40:07.813Z,38.4
2018-10-21T18:42:06.038Z,38.4
2018-10-21T18:44:05.767Z,38.6
2018-10-21T18:46:08.115Z,38.6
2018-10-21T18:48:05.686Z,38.3
2018-10-21T18:50:10.512Z,38.7
2018-10-21T18:52:05.312Z,38.4
2018-10-21T18:54:05.499Z,39.7
2018-10-21T18:56:05.239Z,39.2
2018-10-21T18:58:08.671Z,37.3
2018-10-21T19:00:05.690Z,36.9
2018-10-21T19:02:07.877Z,37.3
2018-10-21T19:04:05.689Z,37.5
2018-10-21T19:06:05.604Z,37.4
2018-10-21T19:08:07.875Z,37.8
2018-10-21T19:10:08.221Z,37.5
2018-10-21T19:12:10.518Z,37.2
2018-10-21T19:14:05.185Z,37.2
2018-10-21T19:16:11.168Z,37.4
2018-10-21T19:18:06.027Z,37.6
2018-10-21T19:20:08.247Z,36.4
2018-10-21T19:22:06.194Z,36.5
2018-10-21T19:24:05.096Z,36.4
2018-10-21T19:26:05.323Z,36.5
2018-10-21T19:28:06.211Z,36.7
2018-10-21T19:30:05.072Z,36.6
2018-10-21T19:32:07.807Z,35.6
2018-10-21T19:34:05.663Z,35.8
2018-10-21T19:36:05.746Z,35.3
2018-10-21T19:38:08.077Z,35.5
2018-10-21T19:40:05.425Z,35.6
2018-10-21T19:42:07.881Z,35
2018-10-21T19:44:05.159Z,34.9
2018-10-21T19:46:06.057Z,35.3
2018-10-21T19:48:06.300Z,34.8
2018-10-21T19:50:06.183Z,34.6
2018-10-21T19:52:11.331Z,34.4
2018-10-21T19:54:05.401Z,34.4
2018-10-21T19:56:05.116Z,34.8
2018-10-21T19:58:11.195Z,34.9
2018-10-21T20:00:05.208Z,35
2018-10-21T20:02:05.876Z,35.3
2018-10-21T20:04:05.734Z,34.8
2018-10-21T20:06:05.638Z,35.2
2018-10-21T20:08:05.343Z,35.3
2018-10-21T20:10:05.246Z,35.3
2018-10-21T20:12:06.015Z,35.3
2018-10-21T20:14:05.993Z,35.3
2018-10-21T20:16:05.838Z,35.4
2018-10-21T20:18:06.106Z,35.6
2018-10-21T20:20:11.026Z,35.6
2018-10-21T20:22:05.411Z,35.5
2018-10-21T20:24:05.250Z,35.6
2018-10-21T20:26:05.925Z,35.6
2018-10-21T20:28:05.682Z,35.7
2018-10-21T20:30:08.393Z,35.7
2018-10-21T20:32:05.182Z,35.9
2018-10-21T20:34:05.969Z,35.9
2018-10-21T20:36:10.857Z,36
2018-10-21T20:38:05.201Z,36
2018-10-21T20:40:06.169Z,35.9
2018-10-21T20:42:05.188Z,36
2018-10-21T20:44:05.126Z,36
2018-10-21T20:46:06.022Z,35.9
2018-10-21T20:48:11.317Z,35.8
2018-10-21T20:50:10.707Z,35.9
2018-10-21T20:52:06.113Z,36.1
2018-10-21T20:54:05.975Z,36.2
2018-10-21T20:56:08.466Z,36
2018-10-21T20:58:08.090Z,36.3
2018-10-21T21:00:06.000Z,36.3
2018-10-21T21:02:05.993Z,36.1
2018-10-21T21:04:08.378Z,36.2
2018-10-21T21:06:06.166Z,36.2
2018-10-21T21:08:05.211Z,36.2
2018-10-21T21:10:05.127Z,36.4
2018-10-21T21:12:05.330Z,36.3
2018-10-21T21:14:05.293Z,36.3
2018-10-21T21:16:08.367Z,36.4
2018-10-21T21:18:05.985Z,36.3
2018-10-21T21:20:05.889Z,36.5
2018-10-21T21:22:05.702Z,36.4
2018-10-21T21:24:11.943Z,36.4
2018-10-21T21:26:08.004Z,36.5
2018-10-21T21:28:05.797Z,36.5
2018-10-21T21:30:06.002Z,36.4
2018-10-21T21:32:05.142Z,36.3
2018-10-21T21:34:06.047Z,36.5
2018-10-21T21:36:06.037Z,36.5
2018-10-21T21:38:05.073Z,36.1
2018-10-21T21:40:05.877Z,36.3
2018-10-21T21:42:06.049Z,36.3
2018-10-21T21:44:05.143Z,36.5
2018-10-21T21:46:06.155Z,36.5
2018-10-21T21:48:05.155Z,36.6
2018-10-21T21:50:05.120Z,36.6
2018-10-21T21:52:05.962Z,36.5
2018-10-21T21:54:11.408Z,36.4
2018-10-21T21:56:05.663Z,36.4
2018-10-21T21:58:05.751Z,36.5
2018-10-21T22:00:05.929Z,36.5
2018-10-21T22:02:06.085Z,36.6
2018-10-21T22:04:06.046Z,36.6
2018-10-21T22:06:05.134Z,36.6
2018-10-21T22:08:05.103Z,36.4
2018-10-21T22:10:05.444Z,36.5
2018-10-21T22:12:08.629Z,36.3
2018-10-21T22:14:05.742Z,36.3
2018-10-21T22:16:05.607Z,36.2
2018-10-21T22:18:05.518Z,36.4
2018-10-21T22:20:05.524Z,36.4
2018-10-21T22:22:08.448Z,36.5
2018-10-21T22:24:05.437Z,36.5
2018-10-21T22:26:07.912Z,36.5
2018-10-21T22:28:13.217Z,36.3
2018-10-21T22:30:05.458Z,36.3
2018-10-21T22:32:05.450Z,36.5
2018-10-21T22:34:07.905Z,36.3
2018-10-21T22:36:05.911Z,36.1
2018-10-21T22:38:06.041Z,36.3
2018-10-21T22:40:05.687Z,36.4
2018-10-21T22:42:05.817Z,36.4
2018-10-21T22:44:05.772Z,36.5
2018-10-21T22:46:05.780Z,36.4
2018-10-21T22:48:06.195Z,36.3
2018-10-21T22:50:05.709Z,36.4
2018-10-21T22:52:06.272Z,36.1
2018-10-21T22:54:05.284Z,36.4
2018-10-21T22:56:05.624Z,36.2
2018-10-21T22:58:05.435Z,36.3
2018-10-21T23:00:05.660Z,36.3
2018-10-21T23:02:05.573Z,36.3
2018-10-21T23:04:10.536Z,36.2
2018-10-21T23:06:05.692Z,36.2
2018-10-21T23:08:05.650Z,36.3
2018-10-21T23:10:10.620Z,36.1
2018-10-21T23:12:05.408Z,36.2
2018-10-21T23:14:05.430Z,36.1
2018-10-21T23:16:05.791Z,36.2
2018-10-21T23:18:05.658Z,36.3
2018-10-21T23:20:05.562Z,36.2
2018-10-21T23:22:08.442Z,36
2018-10-21T23:24:05.543Z,36
2018-10-21T23:26:05.365Z,36.2
2018-10-21T23:28:05.207Z,36.2
2018-10-21T23:30:05.446Z,36
2018-10-21T23:32:05.464Z,36.1
2018-10-21T23:34:05.383Z,36.1
2018-10-21T23:36:10.685Z,36.1
2018-10-21T23:38:05.336Z,36.1
2018-10-21T23:40:07.794Z,35.9
2018-10-21T23:42:05.933Z,35.9
2018-10-21T23:44:10.982Z,36
2018-10-21T23:46:05.229Z,36
2018-10-21T23:48:05.157Z,36.1
2018-10-21T23:50:05.206Z,36.1
2018-10-21T23:52:06.089Z,36.1
2018-10-21T23:54:05.193Z,36
2018-10-21T23:56:05.164Z,36
2018-10-21T23:58:08.545Z,36
